createdAt,value
2023-05-14T00:00:35.367Z,504.00
2023-05-14T00:01:36.379Z,501.00
2023-05-14T00:02:35.448Z,504.00
2023-05-14T00:03:35.428Z,503.00
2023-05-14T00:04:36.517Z,502.00
2023-05-14T00:05:36.341Z,504.00
2023-05-14T00:06:35.335Z,503.00
2023-05-14T00:07:36.326Z,503.00
2023-05-14T00:08:35.306Z,500.00
2023-05-14T00:09:36.340Z,501.00
2023-05-14T00:10:35.306Z,504.00
2023-05-14T00:11:36.340Z,502.00
2023-05-14T00:12:35.283Z,502.00
2023-05-14T00:13:36.289Z,502.00
2023-05-14T00:14:36.272Z,501.00
2023-05-14T00:15:35.329Z,502.00
2023-05-14T00:16:35.383Z,504.00
2023-05-14T00:17:36.332Z,504.00
2023-05-14T00:18:36.273Z,503.00
2023-05-14T00:19:36.256Z,504.00
2023-05-14T00:20:35.288Z,500.00
2023-05-14T00:21:36.220Z,500.00
2023-05-14T00:22:35.245Z,502.00
2023-05-14T00:23:36.268Z,505.00
2023-05-14T00:24:36.226Z,502.00
2023-05-14T00:25:35.233Z,502.00
2023-05-14T00:26:35.247Z,506.00
2023-05-14T00:27:35.200Z,503.00
2023-05-14T00:28:36.169Z,501.00
2023-05-14T00:29:36.175Z,502.00
2023-05-14T00:30:35.170Z,503.00
2023-05-14T00:31:36.230Z,502.00
2023-05-14T00:32:36.177Z,506.00
2023-05-14T00:33:35.153Z,504.00
2023-05-14T00:34:35.148Z,502.00
2023-05-14T00:35:35.143Z,501.00
2023-05-14T00:36:35.150Z,503.00
2023-05-14T00:37:35.112Z,503.00
2023-05-14T00:38:36.129Z,503.00
2023-05-14T00:39:35.106Z,502.00
2023-05-14T00:40:35.121Z,500.00
2023-05-14T00:41:35.123Z,501.00
2023-05-14T00:42:36.152Z,504.00
2023-05-14T00:43:36.193Z,505.00
2023-05-14T00:44:35.207Z,505.00
2023-05-14T00:45:36.222Z,503.00
2023-05-14T00:46:36.244Z,502.00
2023-05-14T00:47:36.325Z,503.00
2023-05-14T00:48:35.272Z,505.00
2023-05-14T00:49:35.313Z,502.00
2023-05-14T00:50:36.370Z,502.00
2023-05-14T00:51:36.338Z,503.00
2023-05-14T00:52:36.377Z,503.00
2023-05-14T00:53:36.394Z,501.00
2023-05-14T00:54:35.421Z,501.00
2023-05-14T00:55:35.433Z,503.00
2023-05-14T00:56:36.472Z,504.00
2023-05-14T00:57:35.489Z,505.00
2023-05-14T00:58:36.493Z,506.00
2023-05-14T00:59:36.555Z,509.00
2023-05-14T01:00:36.586Z,502.00
2023-05-14T01:01:35.575Z,503.00
2023-05-14T01:02:36.717Z,504.00
2023-05-14T01:03:36.741Z,504.00
2023-05-14T01:04:36.641Z,505.00
2023-05-14T01:05:36.772Z,504.00
2023-05-14T01:06:35.842Z,504.00
2023-05-14T01:07:36.700Z,505.00
2023-05-14T01:08:36.719Z,504.00
2023-05-14T01:09:35.733Z,502.00
2023-05-14T01:10:35.754Z,503.00
2023-05-14T01:11:36.784Z,505.00
2023-05-14T01:12:35.794Z,505.00
2023-05-14T01:13:36.815Z,501.00
2023-05-14T01:14:36.841Z,502.00
2023-05-14T01:15:36.896Z,505.00
2023-05-14T01:16:37.306Z,500.00
2023-05-14T01:17:37.017Z,503.00
2023-05-14T01:18:36.980Z,503.00
2023-05-14T01:19:36.959Z,504.00
2023-05-14T01:20:37.000Z,504.00
2023-05-14T01:21:37.012Z,504.00
2023-05-14T01:22:36.043Z,506.00
2023-05-14T01:23:37.062Z,501.00
2023-05-14T01:24:37.079Z,504.00
2023-05-14T01:25:36.104Z,503.00
2023-05-14T01:26:36.120Z,502.00
2023-05-14T01:27:37.147Z,504.00
2023-05-14T01:28:37.169Z,500.00
2023-05-14T01:29:36.185Z,500.00
2023-05-14T01:30:36.243Z,503.00
2023-05-14T01:31:37.277Z,503.00
2023-05-14T01:32:37.318Z,503.00
2023-05-14T01:33:37.268Z,500.00
2023-05-14T01:34:37.313Z,504.00
2023-05-14T01:35:37.338Z,505.00
2023-05-14T01:36:36.350Z,501.00
2023-05-14T01:37:36.372Z,504.00
2023-05-14T01:38:36.390Z,502.00
2023-05-14T01:39:37.423Z,502.00
2023-05-14T01:40:37.450Z,505.00
2023-05-14T01:41:37.486Z,504.00
2023-05-14T01:42:37.492Z,504.00
2023-05-14T01:43:37.587Z,503.00
2023-05-14T01:44:36.519Z,504.00
2023-05-14T01:45:37.568Z,502.00
2023-05-14T01:46:37.750Z,502.00
2023-05-14T01:47:36.678Z,503.00
2023-05-14T01:48:37.643Z,503.00
2023-05-14T01:49:37.642Z,503.00
2023-05-14T01:50:37.707Z,501.00
2023-05-14T01:51:37.695Z,505.00
2023-05-14T01:52:37.726Z,502.00
2023-05-14T01:53:37.756Z,501.00
2023-05-14T01:54:36.795Z,503.00
2023-05-14T01:55:37.809Z,502.00
2023-05-14T01:56:37.834Z,504.00
2023-05-14T01:57:37.862Z,504.00
2023-05-14T01:58:36.880Z,502.00
2023-05-14T01:59:37.913Z,500.00
2023-05-14T02:00:38.003Z,504.00
2023-05-14T02:01:38.035Z,504.00
2023-05-14T02:02:38.081Z,503.00
2023-05-14T02:03:38.133Z,503.00
2023-05-14T02:04:38.068Z,502.00
2023-05-14T02:05:38.102Z,502.00
2023-05-14T02:06:37.138Z,502.00
2023-05-14T02:07:38.165Z,504.00
2023-05-14T02:08:37.188Z,504.00
2023-05-14T02:09:37.212Z,501.00
2023-05-14T02:10:37.266Z,504.00
2023-05-14T02:11:37.284Z,503.00
2023-05-14T02:12:38.297Z,504.00
2023-05-14T02:13:37.349Z,505.00
2023-05-14T02:14:37.361Z,505.00
2023-05-14T02:15:37.410Z,502.00
2023-05-14T02:16:38.460Z,502.00
2023-05-14T02:17:37.449Z,503.00
2023-05-14T02:18:38.520Z,502.00
2023-05-14T02:19:38.542Z,501.00
2023-05-14T02:20:37.533Z,502.00
2023-05-14T02:21:37.571Z,501.00
2023-05-14T02:22:37.673Z,502.00
2023-05-14T02:23:41.715Z,503.00
2023-05-14T02:24:37.621Z,504.00
2023-05-14T02:25:38.630Z,504.00
2023-05-14T02:26:38.621Z,504.00
2023-05-14T02:27:37.607Z,505.00
2023-05-14T02:28:38.637Z,505.00
2023-05-14T02:29:38.598Z,503.00
2023-05-14T02:30:38.604Z,504.00
2023-05-14T02:31:38.593Z,505.00
2023-05-14T02:32:37.678Z,503.00
2023-05-14T02:33:38.619Z,503.00
2023-05-14T02:34:37.556Z,500.00
2023-05-14T02:35:38.581Z,503.00
2023-05-14T02:36:37.550Z,503.00
2023-05-14T02:37:37.541Z,504.00
2023-05-14T02:38:38.526Z,505.00
2023-05-14T02:39:38.548Z,503.00
2023-05-14T02:40:37.521Z,504.00
2023-05-14T02:41:37.500Z,501.00
2023-05-14T02:42:38.526Z,503.00
2023-05-14T02:43:38.525Z,502.00
2023-05-14T02:44:38.496Z,504.00
2023-05-14T02:45:37.480Z,501.00
2023-05-14T02:46:38.510Z,502.00
2023-05-14T02:47:38.117Z,505.00
2023-05-14T02:48:37.461Z,503.00
2023-05-14T02:49:38.450Z,501.00
2023-05-14T02:50:38.480Z,503.00
2023-05-14T02:51:38.554Z,503.00
2023-05-14T02:52:38.570Z,503.00
2023-05-14T02:53:38.569Z,502.00
2023-05-14T02:54:38.587Z,501.00
2023-05-14T02:55:38.609Z,503.00
2023-05-14T02:56:37.646Z,506.00
2023-05-14T02:57:37.694Z,500.00
2023-05-14T02:58:38.708Z,506.00
2023-05-14T02:59:37.730Z,502.00
2023-05-14T03:00:37.843Z,504.00
2023-05-14T03:01:38.807Z,507.00
2023-05-14T03:02:37.910Z,504.00
2023-05-14T03:03:38.861Z,502.00
2023-05-14T03:04:38.884Z,505.00
2023-05-14T03:05:37.923Z,501.00
2023-05-14T03:06:38.186Z,501.00
2023-05-14T03:07:38.015Z,503.00
2023-05-14T03:08:38.041Z,503.00
2023-05-14T03:09:39.041Z,500.00
2023-05-14T03:10:39.108Z,501.00
2023-05-14T03:11:38.148Z,505.00
2023-05-14T03:12:38.164Z,502.00
2023-05-14T03:13:38.222Z,506.00
2023-05-14T03:14:38.226Z,505.00
2023-05-14T03:15:39.322Z,500.00
2023-05-14T03:16:39.330Z,505.00
2023-05-14T03:17:38.330Z,503.00
2023-05-14T03:18:39.410Z,503.00
2023-05-14T03:19:38.369Z,505.00
2023-05-14T03:20:39.385Z,504.00
2023-05-14T03:21:38.453Z,503.00
2023-05-14T03:22:38.481Z,505.00
2023-05-14T03:23:39.595Z,503.00
2023-05-14T03:24:39.591Z,502.00
2023-05-14T03:25:39.570Z,506.00
2023-05-14T03:26:38.616Z,500.00
2023-05-14T03:27:39.644Z,502.00
2023-05-14T03:28:39.685Z,501.00
2023-05-14T03:29:39.699Z,503.00
2023-05-14T03:30:38.756Z,501.00
2023-05-14T03:31:39.789Z,504.00
2023-05-14T03:32:38.809Z,505.00
2023-05-14T03:33:39.839Z,500.00
2023-05-14T03:34:39.924Z,501.00
2023-05-14T03:35:38.917Z,502.00
2023-05-14T03:36:38.974Z,502.00
2023-05-14T03:37:39.986Z,502.00
2023-05-14T03:38:39.013Z,503.00
2023-05-14T03:39:39.066Z,505.00
2023-05-14T03:40:39.083Z,504.00
2023-05-14T03:41:39.128Z,503.00
2023-05-14T03:42:40.154Z,504.00
2023-05-14T03:43:39.183Z,503.00
2023-05-14T03:44:39.203Z,500.00
2023-05-14T03:45:40.286Z,501.00
2023-05-14T03:46:40.293Z,502.00
2023-05-14T03:47:39.382Z,501.00
2023-05-14T03:48:40.386Z,504.00
2023-05-14T03:49:39.403Z,503.00
2023-05-14T03:50:40.415Z,501.00
2023-05-14T03:51:40.456Z,503.00
2023-05-14T03:52:39.471Z,502.00
2023-05-14T03:53:40.528Z,503.00
2023-05-14T03:54:40.551Z,503.00
2023-05-14T03:55:39.598Z,500.00
2023-05-14T03:56:40.609Z,504.00
2023-05-14T03:57:40.648Z,503.00
2023-05-14T03:58:40.675Z,504.00
2023-05-14T03:59:39.711Z,506.00
2023-05-14T04:00:39.773Z,504.00
2023-05-14T04:01:39.780Z,507.00
2023-05-14T04:02:40.867Z,502.00
2023-05-14T04:03:40.037Z,501.00
2023-05-14T04:04:39.908Z,503.00
2023-05-14T04:05:39.921Z,505.00
2023-05-14T04:06:40.957Z,502.00
2023-05-14T04:07:40.974Z,503.00
2023-05-14T04:08:40.992Z,503.00
2023-05-14T04:09:41.069Z,506.00
2023-05-14T04:10:41.134Z,502.00
2023-05-14T04:11:41.126Z,503.00
2023-05-14T04:12:41.131Z,504.00
2023-05-14T04:13:40.173Z,504.00
2023-05-14T04:14:41.223Z,500.00
2023-05-14T04:15:40.252Z,500.00
2023-05-14T04:16:40.362Z,505.00
2023-05-14T04:17:40.356Z,500.00
2023-05-14T04:18:40.423Z,501.00
2023-05-14T04:19:40.418Z,502.00
2023-05-14T04:20:40.453Z,502.00
2023-05-14T04:21:41.507Z,501.00
2023-05-14T04:22:41.539Z,504.00
2023-05-14T04:23:40.581Z,503.00
2023-05-14T04:24:41.622Z,504.00
2023-05-14T04:25:40.661Z,505.00
2023-05-14T04:26:40.740Z,503.00
2023-05-14T04:27:40.753Z,506.00
2023-05-14T04:28:41.774Z,502.00
2023-05-14T04:29:40.808Z,504.00
2023-05-14T04:30:40.859Z,506.00
2023-05-14T04:31:40.948Z,501.00
2023-05-14T04:32:41.951Z,505.00
2023-05-14T04:33:41.974Z,502.00
2023-05-14T04:34:42.013Z,506.00
2023-05-14T04:35:41.037Z,502.00
2023-05-14T04:36:41.081Z,503.00
2023-05-14T04:37:42.114Z,501.00
2023-05-14T04:38:42.184Z,502.00
2023-05-14T04:39:42.182Z,505.00
2023-05-14T04:40:42.226Z,507.00
2023-05-14T04:41:41.268Z,505.00
2023-05-14T04:42:42.315Z,505.00
2023-05-14T04:43:41.324Z,502.00
2023-05-14T04:44:41.381Z,505.00
2023-05-14T04:45:41.452Z,506.00
2023-05-14T04:46:42.460Z,504.00
2023-05-14T04:47:42.568Z,502.00
2023-05-14T04:48:42.555Z,500.00
2023-05-14T04:49:41.574Z,504.00
2023-05-14T04:50:41.631Z,507.00
2023-05-14T04:51:42.673Z,504.00
2023-05-14T04:52:41.699Z,502.00
2023-05-14T04:53:42.737Z,506.00
2023-05-14T04:54:42.844Z,506.00
2023-05-14T04:55:42.815Z,505.00
2023-05-14T04:56:42.863Z,502.00
2023-05-14T04:57:41.902Z,505.00
2023-05-14T04:58:42.971Z,504.00
2023-05-14T04:59:42.965Z,503.00
2023-05-14T05:00:43.044Z,504.00
2023-05-14T05:01:42.109Z,502.00
2023-05-14T05:02:43.160Z,503.00
2023-05-14T05:03:43.230Z,503.00
2023-05-14T05:04:43.188Z,505.00
2023-05-14T05:05:43.223Z,504.00
2023-05-14T05:06:43.293Z,504.00
2023-05-14T05:07:43.309Z,503.00
2023-05-14T05:08:43.344Z,503.00
2023-05-14T05:09:43.393Z,500.00
2023-05-14T05:10:43.439Z,505.00
2023-05-14T05:11:43.514Z,504.00
2023-05-14T05:12:42.520Z,503.00
2023-05-14T05:13:43.564Z,502.00
2023-05-14T05:14:43.636Z,506.00
2023-05-14T05:15:43.671Z,503.00
2023-05-14T05:16:43.709Z,505.00
2023-05-14T05:17:43.774Z,504.00
2023-05-14T05:18:42.791Z,506.00
2023-05-14T05:19:44.502Z,505.00
2023-05-14T05:20:42.865Z,502.00
2023-05-14T05:21:42.904Z,502.00
2023-05-14T05:22:43.986Z,506.00
2023-05-14T05:23:43.001Z,506.00
2023-05-14T05:24:43.029Z,506.00
2023-05-14T05:25:43.089Z,505.00
2023-05-14T05:26:43.138Z,504.00
2023-05-14T05:27:44.142Z,505.00
2023-05-14T05:28:44.183Z,502.00
2023-05-14T05:29:43.238Z,503.00
2023-05-14T05:30:44.303Z,503.00
2023-05-14T05:31:43.321Z,505.00
2023-05-14T05:32:44.392Z,506.00
2023-05-14T05:33:43.378Z,504.00
2023-05-14T05:34:44.405Z,503.00
2023-05-14T05:35:44.465Z,503.00
2023-05-14T05:36:44.491Z,503.00
2023-05-14T05:37:43.520Z,507.00
2023-05-14T05:38:43.556Z,505.00
2023-05-14T05:39:43.621Z,506.00
2023-05-14T05:40:44.638Z,501.00
2023-05-14T05:41:43.678Z,506.00
2023-05-14T05:42:44.705Z,504.00
2023-05-14T05:43:43.758Z,505.00
2023-05-14T05:44:44.776Z,504.00
2023-05-14T05:45:44.812Z,507.00
2023-05-14T05:46:43.953Z,508.00
2023-05-14T05:47:43.904Z,502.00
2023-05-14T05:48:43.924Z,504.00
2023-05-14T05:49:44.998Z,504.00
2023-05-14T05:50:44.991Z,504.00
2023-05-14T05:51:44.042Z,507.00
2023-05-14T05:52:45.070Z,503.00
2023-05-14T05:53:45.108Z,503.00
2023-05-14T05:54:44.144Z,508.00
2023-05-14T05:55:44.182Z,503.00
2023-05-14T05:56:45.237Z,502.00
2023-05-14T05:57:45.261Z,507.00
2023-05-14T05:58:44.356Z,504.00
2023-05-14T05:59:44.334Z,504.00
2023-05-14T06:00:44.369Z,502.00
2023-05-14T06:01:44.496Z,503.00
2023-05-14T06:02:44.579Z,503.00
2023-05-14T06:03:48.298Z,505.00
2023-05-14T06:04:44.470Z,506.00
2023-05-14T06:05:45.470Z,505.00
2023-05-14T06:06:45.508Z,506.00
2023-05-14T06:07:44.465Z,504.00
2023-05-14T06:08:45.458Z,504.00
2023-05-14T06:09:45.469Z,505.00
2023-05-14T06:10:47.554Z,505.00
2023-05-14T06:11:44.435Z,506.00
2023-05-14T06:12:44.432Z,506.00
2023-05-14T06:13:45.403Z,506.00
2023-05-14T06:14:45.399Z,507.00
2023-05-14T06:15:45.408Z,504.00
2023-05-14T06:16:44.420Z,505.00
2023-05-14T06:17:45.408Z,506.00
2023-05-14T06:18:45.439Z,506.00
2023-05-14T06:19:44.389Z,501.00
2023-05-14T06:20:44.385Z,504.00
2023-05-14T06:21:45.345Z,505.00
2023-05-14T06:22:45.347Z,502.00
2023-05-14T06:23:45.350Z,504.00
2023-05-14T06:24:45.340Z,506.00
2023-05-14T06:25:44.334Z,506.00
2023-05-14T06:26:44.332Z,504.00
2023-05-14T06:27:44.315Z,505.00
2023-05-14T06:28:44.310Z,505.00
2023-05-14T06:29:45.293Z,506.00
2023-05-14T06:30:45.304Z,503.00
2023-05-14T06:31:44.339Z,503.00
2023-05-14T06:32:44.358Z,503.00
2023-05-14T06:33:44.279Z,504.00
2023-05-14T06:34:45.271Z,504.00
2023-05-14T06:35:44.245Z,504.00
2023-05-14T06:36:44.245Z,505.00
2023-05-14T06:37:44.243Z,505.00
2023-05-14T06:38:45.238Z,504.00
2023-05-14T06:39:44.230Z,503.00
2023-05-14T06:40:45.227Z,507.00
2023-05-14T06:41:44.249Z,504.00
2023-05-14T06:42:45.211Z,503.00
2023-05-14T06:43:45.200Z,502.00
2023-05-14T06:44:44.183Z,505.00
2023-05-14T06:45:45.192Z,502.00
2023-05-14T06:46:45.168Z,505.00
2023-05-14T06:47:44.219Z,503.00
2023-05-14T06:48:44.194Z,505.00
2023-05-14T06:49:45.166Z,503.00
2023-05-14T06:50:45.191Z,503.00
2023-05-14T06:51:44.159Z,505.00
2023-05-14T06:52:45.162Z,504.00
2023-05-14T06:53:45.200Z,503.00
2023-05-14T06:54:45.240Z,505.00
2023-05-14T06:55:45.246Z,504.00
2023-05-14T06:56:44.288Z,504.00
2023-05-14T06:57:44.342Z,506.00
2023-05-14T06:58:45.364Z,505.00
2023-05-14T06:59:45.427Z,502.00
2023-05-14T07:00:44.459Z,501.00
2023-05-14T07:01:44.496Z,503.00
2023-05-14T07:02:45.517Z,502.00
2023-05-14T07:03:44.490Z,500.00
2023-05-14T07:04:44.584Z,501.00
2023-05-14T07:05:45.552Z,503.00
2023-05-14T07:06:45.618Z,507.00
2023-05-14T07:07:45.616Z,503.00
2023-05-14T07:08:45.634Z,503.00
2023-05-14T07:09:45.672Z,506.00
2023-05-14T07:10:45.671Z,502.00
2023-05-14T07:11:44.705Z,505.00
2023-05-14T07:12:44.739Z,504.00
2023-05-14T07:13:45.754Z,505.00
2023-05-14T07:14:44.763Z,504.00
2023-05-14T07:15:44.776Z,504.00
2023-05-14T07:16:45.844Z,505.00
2023-05-14T07:17:45.904Z,505.00
2023-05-14T07:18:44.857Z,504.00
2023-05-14T07:19:45.851Z,508.00
2023-05-14T07:20:44.853Z,506.00
2023-05-14T07:21:44.865Z,506.00
2023-05-14T07:22:45.909Z,508.00
2023-05-14T07:23:45.904Z,505.00
2023-05-14T07:24:45.912Z,509.00
2023-05-14T07:25:44.939Z,503.00
2023-05-14T07:26:45.970Z,504.00
2023-05-14T07:27:45.989Z,506.00
2023-05-14T07:28:44.976Z,506.00
2023-05-14T07:29:45.016Z,506.00
2023-05-14T07:30:46.017Z,505.00
2023-05-14T07:31:45.118Z,503.00
2023-05-14T07:32:45.064Z,502.00
2023-05-14T07:33:45.038Z,502.00
2023-05-14T07:34:45.057Z,505.00
2023-05-14T07:35:46.093Z,502.00
2023-05-14T07:36:45.092Z,502.00
2023-05-14T07:37:46.108Z,504.00
2023-05-14T07:38:45.141Z,505.00
2023-05-14T07:39:46.131Z,504.00
2023-05-14T07:40:45.147Z,503.00
2023-05-14T07:41:45.164Z,506.00
2023-05-14T07:42:45.174Z,504.00
2023-05-14T07:43:46.228Z,503.00
2023-05-14T07:44:45.196Z,504.00
2023-05-14T07:45:46.212Z,508.00
2023-05-14T07:46:46.229Z,505.00
2023-05-14T07:47:46.303Z,507.00
2023-05-14T07:48:45.309Z,505.00
2023-05-14T07:49:45.269Z,508.00
2023-05-14T07:50:45.282Z,505.00
2023-05-14T07:51:45.310Z,503.00
2023-05-14T07:52:46.317Z,505.00
2023-05-14T07:53:45.299Z,505.00
2023-05-14T07:54:45.342Z,506.00
2023-05-14T07:55:45.349Z,508.00
2023-05-14T07:56:46.354Z,504.00
2023-05-14T07:57:45.376Z,506.00
2023-05-14T07:58:46.370Z,506.00
2023-05-14T07:59:45.358Z,504.00
2023-05-14T08:00:45.383Z,505.00
2023-05-14T08:01:46.407Z,508.00
2023-05-14T08:02:46.598Z,504.00
2023-05-14T08:03:46.555Z,504.00
2023-05-14T08:04:46.416Z,506.00
2023-05-14T08:05:45.429Z,503.00
2023-05-14T08:06:46.461Z,507.00
2023-05-14T08:07:45.445Z,504.00
2023-05-14T08:08:46.443Z,506.00
2023-05-14T08:09:46.459Z,505.00
2023-05-14T08:10:45.534Z,504.00
2023-05-14T08:11:45.469Z,506.00
2023-05-14T08:12:46.465Z,504.00
2023-05-14T08:13:46.502Z,506.00
2023-05-14T08:14:45.488Z,504.00
2023-05-14T08:15:46.520Z,500.00
2023-05-14T08:16:45.522Z,502.00
2023-05-14T08:17:45.612Z,505.00
2023-05-14T08:18:46.552Z,506.00
2023-05-14T08:19:46.507Z,507.00
2023-05-14T08:20:46.514Z,505.00
2023-05-14T08:21:46.534Z,503.00
2023-05-14T08:22:46.526Z,507.00
2023-05-14T08:23:46.523Z,506.00
2023-05-14T08:24:46.534Z,505.00
2023-05-14T08:25:46.529Z,507.00
2023-05-14T08:26:45.588Z,504.00
2023-05-14T08:27:45.560Z,506.00
2023-05-14T08:28:45.562Z,508.00
2023-05-14T08:29:45.579Z,505.00
2023-05-14T08:30:45.582Z,507.00
2023-05-14T08:31:45.565Z,507.00
2023-05-14T08:32:46.618Z,505.00
2023-05-14T08:33:45.581Z,507.00
2023-05-14T08:34:45.586Z,505.00
2023-05-14T08:35:46.599Z,508.00
2023-05-14T08:36:45.580Z,505.00
2023-05-14T08:37:46.625Z,507.00
2023-05-14T08:38:46.595Z,507.00
2023-05-14T08:39:46.593Z,505.00
2023-05-14T08:40:46.598Z,509.00
2023-05-14T08:41:45.591Z,508.00
2023-05-14T08:42:45.626Z,507.00
2023-05-14T08:43:45.604Z,503.00
2023-05-14T08:44:46.598Z,505.00
2023-05-14T08:45:45.572Z,504.00
2023-05-14T08:46:46.645Z,506.00
2023-05-14T08:47:45.622Z,504.00
2023-05-14T08:48:45.614Z,508.00
2023-05-14T08:49:46.584Z,506.00
2023-05-14T08:50:45.572Z,507.00
2023-05-14T08:51:45.572Z,505.00
2023-05-14T08:52:46.572Z,511.00
2023-05-14T08:53:46.568Z,507.00
2023-05-14T08:54:45.582Z,510.00
2023-05-14T08:55:45.573Z,510.00
2023-05-14T08:56:45.553Z,507.00
2023-05-14T08:57:46.541Z,506.00
2023-05-14T08:58:46.565Z,510.00
2023-05-14T08:59:45.618Z,513.00
2023-05-14T09:00:45.553Z,507.00
2023-05-14T09:01:46.658Z,508.00
2023-05-14T09:02:46.587Z,509.00
2023-05-14T09:03:45.607Z,510.00
2023-05-14T09:04:46.557Z,509.00
2023-05-14T09:05:45.542Z,509.00
2023-05-14T09:06:46.544Z,507.00
2023-05-14T09:07:46.536Z,508.00
2023-05-14T09:08:46.583Z,510.00
2023-05-14T09:09:46.532Z,510.00
2023-05-14T09:10:46.526Z,511.00
2023-05-14T09:11:45.525Z,508.00
2023-05-14T09:12:45.546Z,511.00
2023-05-14T09:13:45.521Z,510.00
2023-05-14T09:14:46.550Z,513.00
2023-05-14T09:15:45.530Z,510.00
2023-05-14T09:16:46.667Z,511.00
2023-05-14T09:17:46.590Z,511.00
2023-05-14T09:18:46.588Z,512.00
2023-05-14T09:19:45.523Z,509.00
2023-05-14T09:20:45.546Z,510.00
2023-05-14T09:21:46.553Z,510.00
2023-05-14T09:22:45.548Z,509.00
2023-05-14T09:23:45.555Z,510.00
2023-05-14T09:24:45.537Z,511.00
2023-05-14T09:25:46.539Z,514.00
2023-05-14T09:26:46.538Z,512.00
2023-05-14T09:27:45.534Z,511.00
2023-05-14T09:28:45.546Z,509.00
2023-05-14T09:29:45.536Z,512.00
2023-05-14T09:30:46.563Z,511.00
2023-05-14T09:31:46.569Z,513.00
2023-05-14T09:32:45.572Z,513.00
2023-05-14T09:33:46.549Z,511.00
2023-05-14T09:34:45.547Z,514.00
2023-05-14T09:35:46.575Z,511.00
2023-05-14T09:36:46.559Z,513.00
2023-05-14T09:37:46.550Z,513.00
2023-05-14T09:38:46.552Z,514.00
2023-05-14T09:39:45.574Z,517.00
2023-05-14T09:40:46.584Z,516.00
2023-05-14T09:41:45.581Z,513.00
2023-05-14T09:42:45.586Z,517.00
2023-05-14T09:43:45.588Z,517.00
2023-05-14T09:44:45.605Z,513.00
2023-05-14T09:45:45.606Z,514.00
2023-05-14T09:46:45.624Z,515.00
2023-05-14T09:47:45.939Z,515.00
2023-05-14T09:48:45.650Z,513.00
2023-05-14T09:49:46.596Z,511.00
2023-05-14T09:50:45.732Z,514.00
2023-05-14T09:51:45.593Z,511.00
2023-05-14T09:52:46.603Z,514.00
2023-05-14T09:53:45.640Z,514.00
2023-05-14T09:54:45.623Z,515.00
2023-05-14T09:55:45.618Z,515.00
2023-05-14T09:56:45.630Z,515.00
2023-05-14T09:57:46.618Z,515.00
2023-05-14T09:58:45.629Z,516.00
2023-05-14T09:59:46.627Z,517.00
2023-05-14T10:00:45.662Z,515.00
2023-05-14T10:01:45.718Z,515.00
2023-05-14T10:02:46.714Z,516.00
2023-05-14T10:03:46.657Z,518.00
2023-05-14T10:04:46.750Z,519.00
2023-05-14T10:05:46.657Z,517.00
2023-05-14T10:06:46.676Z,517.00
2023-05-14T10:07:46.689Z,519.00
2023-05-14T10:08:46.672Z,515.00
2023-05-14T10:09:46.673Z,518.00
2023-05-14T10:10:45.683Z,518.00
2023-05-14T10:11:46.679Z,517.00
2023-05-14T10:12:45.653Z,518.00
2023-05-14T10:13:46.683Z,518.00
2023-05-14T10:14:45.670Z,520.00
2023-05-14T10:15:46.658Z,520.00
2023-05-14T10:16:46.680Z,517.00
2023-05-14T10:17:46.670Z,518.00
2023-05-14T10:18:45.736Z,519.00
2023-05-14T10:19:46.664Z,517.00
2023-05-14T10:20:45.637Z,519.00
2023-05-14T10:21:45.644Z,518.00
2023-05-14T10:22:45.649Z,518.00
2023-05-14T10:23:46.672Z,518.00
2023-05-14T10:24:45.639Z,518.00
2023-05-14T10:25:45.655Z,520.00
2023-05-14T10:26:45.632Z,519.00
2023-05-14T10:27:45.624Z,519.00
2023-05-14T10:28:45.625Z,519.00
2023-05-14T10:29:46.625Z,518.00
2023-05-14T10:30:46.773Z,518.00
2023-05-14T10:31:45.662Z,518.00
2023-05-14T10:32:45.644Z,517.00
2023-05-14T10:33:46.623Z,518.00
2023-05-14T10:34:46.623Z,518.00
2023-05-14T10:35:46.603Z,518.00
2023-05-14T10:36:46.598Z,518.00
2023-05-14T10:37:46.610Z,517.00
2023-05-14T10:38:46.598Z,520.00
2023-05-14T10:39:45.622Z,520.00
2023-05-14T10:40:45.591Z,519.00
2023-05-14T10:41:46.597Z,519.00
2023-05-14T10:42:45.590Z,518.00
2023-05-14T10:43:45.589Z,521.00
2023-05-14T10:44:46.579Z,518.00
2023-05-14T10:45:45.576Z,519.00
2023-05-14T10:46:46.603Z,521.00
2023-05-14T10:47:45.614Z,519.00
2023-05-14T10:48:46.596Z,518.00
2023-05-14T10:49:46.596Z,518.00
2023-05-14T10:50:45.622Z,520.00
2023-05-14T10:51:45.620Z,519.00
2023-05-14T10:52:46.634Z,523.00
2023-05-14T10:53:45.677Z,516.00
2023-05-14T10:54:46.659Z,521.00
2023-05-14T10:55:45.678Z,519.00
2023-05-14T10:56:46.683Z,520.00
2023-05-14T10:57:45.710Z,521.00
2023-05-14T10:58:46.742Z,522.00
2023-05-14T10:59:46.754Z,519.00
2023-05-14T11:00:45.757Z,517.00
2023-05-14T11:01:46.814Z,518.00
2023-05-14T11:02:45.865Z,522.00
2023-05-14T11:03:46.982Z,518.00
2023-05-14T11:04:46.849Z,523.00
2023-05-14T11:05:45.865Z,521.00
2023-05-14T11:06:45.890Z,520.00
2023-05-14T11:07:46.884Z,522.00
2023-05-14T11:08:46.972Z,521.00
2023-05-14T11:09:46.987Z,522.00
2023-05-14T11:10:46.016Z,522.00
2023-05-14T11:11:46.032Z,521.00
2023-05-14T11:12:46.098Z,522.00
2023-05-14T11:13:47.113Z,523.00
2023-05-14T11:14:47.141Z,526.00
2023-05-14T11:15:46.173Z,525.00
2023-05-14T11:16:47.233Z,526.00
2023-05-14T11:17:47.296Z,525.00
2023-05-14T11:18:46.300Z,526.00
2023-05-14T11:19:49.744Z,526.00
2023-05-14T11:20:47.292Z,527.00
2023-05-14T11:21:47.349Z,527.00
2023-05-14T11:22:46.387Z,528.00
2023-05-14T11:23:47.284Z,527.00
2023-05-14T11:24:46.292Z,530.00
2023-05-14T11:25:46.314Z,529.00
2023-05-14T11:26:46.242Z,530.00
2023-05-14T11:27:46.231Z,529.00
2023-05-14T11:28:47.232Z,530.00
2023-05-14T11:29:46.281Z,530.00
2023-05-14T11:30:47.212Z,530.00
2023-05-14T11:31:47.256Z,529.00
2023-05-14T11:32:46.289Z,530.00
2023-05-14T11:33:46.259Z,527.00
2023-05-14T11:34:46.349Z,529.00
2023-05-14T11:35:47.402Z,528.00
2023-05-14T11:36:46.476Z,526.00
2023-05-14T11:37:47.522Z,533.00
2023-05-14T11:38:47.609Z,529.00
2023-05-14T11:39:46.696Z,533.00
2023-05-14T11:40:47.709Z,531.00
2023-05-14T11:41:46.800Z,531.00
2023-05-14T11:42:46.836Z,532.00
2023-05-14T11:43:47.875Z,524.00
2023-05-14T11:44:47.923Z,532.00
2023-05-14T11:45:48.036Z,529.00
2023-05-14T11:46:47.060Z,532.00
2023-05-14T11:47:47.171Z,531.00
2023-05-14T11:48:48.199Z,530.00
2023-05-14T11:49:48.226Z,529.00
2023-05-14T11:50:48.321Z,531.00
2023-05-14T11:51:48.380Z,530.00
2023-05-14T11:52:47.419Z,528.00
2023-05-14T11:53:48.497Z,527.00
2023-05-14T11:54:47.575Z,531.00
2023-05-14T11:55:47.591Z,533.00
2023-05-14T11:56:48.655Z,524.00
2023-05-14T11:57:48.704Z,532.00
2023-05-14T11:58:47.762Z,534.00
2023-05-14T11:59:48.814Z,534.00
2023-05-14T12:00:48.889Z,529.00
2023-05-14T12:01:49.524Z,532.00
2023-05-14T12:02:48.052Z,531.00
2023-05-14T12:03:48.021Z,534.00
2023-05-14T12:04:48.948Z,531.00
2023-05-14T12:05:47.910Z,537.00
2023-05-14T12:06:47.907Z,533.00
2023-05-14T12:07:48.908Z,530.00
2023-05-14T12:08:48.867Z,526.00
2023-05-14T12:09:47.894Z,536.00
2023-05-14T12:10:48.879Z,531.00
2023-05-14T12:11:47.859Z,529.00
2023-05-14T12:12:48.852Z,527.00
2023-05-14T12:13:48.847Z,533.00
2023-05-14T12:14:48.855Z,532.00
2023-05-14T12:15:48.859Z,531.00
2023-05-14T12:16:47.891Z,530.00
2023-05-14T12:17:47.850Z,530.00
2023-05-14T12:18:47.846Z,525.00
2023-05-14T12:19:47.808Z,530.00
2023-05-14T12:20:48.847Z,530.00
2023-05-14T12:21:47.818Z,532.00
2023-05-14T12:22:48.783Z,531.00
2023-05-14T12:23:47.784Z,529.00
2023-05-14T12:24:48.756Z,528.00
2023-05-14T12:25:47.804Z,531.00
2023-05-14T12:26:48.891Z,525.00
2023-05-14T12:27:48.903Z,530.00
2023-05-14T12:28:49.027Z,531.00